Sunlight Mountain, CO

10:43 PM MDT on September 01, 2014 (GMT -0600)
Eagle County Regional | Change Station
CLOSE
Current Station
Airport
Location: Eagle,
Elevation: 6539 ft
Nearby Weather Stations

Elev 6539 ft 39.64 °N, 106.91 °W | Updated 8 minutes ago

Clear
Clear
57 °F
Feels Like 57 °F
N
8
Wind Variable Wind from East

Today
High -- | Low -- °F
--% Chance of Precip.
Yesterday
High -- | Low -- °F
Precip. -- in
6:37 AM 7:40 PM
Waxing Crescent, 47% visible
Pressure 30.23 in
Visibility 10.0 miles
Clouds Clear
Dew Point 37 °F
Humidity 48%
Rainfall 0.00 in
Snow Depth Not available.
UV 0 out of 12
Pollen 9.60 out of 12
Air Quality Not available.
Flu Activity Not available.
METAR KEGE 020435Z AUTO 08007KT 10SM CLR 14/03 A3023 RMK AO1

More Conditions Fewer Conditions

Pressure 30.23 in
Visibility 10.0 miles
Clouds Clear
Dew Point 37 °F
Humidity 48%
Rainfall 0.00 in
Snow Depth Not available.
UV 0 out of 12
Pollen 9.60 out of 12
Air Quality Not available.
Flu Activity Not available.
METAR KEGE 020435Z AUTO 08007KT 10SM CLR 14/03 A3023 RMK AO1

More Conditions Fewer Conditions

10-Day Weather Forecast

Almanac

Astronomy

Sep. 01, 2014 Rise Set
Actual Time 6:37 AM MDT 7:40 PM MDT
Civil Twilight 6:10 AM MDT 8:07 PM MDT
Nautical Twilight 5:37 AM MDT 8:40 PM MDT
Astronomical Twilight 5:03 AM MDT 9:14 PM MDT
Moon 1:24 PM MDT (9/1) 11:46 PM MDT (9/1)
Length of Visible Light 13h 57m
Length of Day
13h 02m
Tomorrow will be 2m 29s shorter.
Waxing Crescent, 47% of the Moon is Illuminated
Sep 2
Waxing Crescent
Sep 2
First Quarter
Sep 8
Full
Sep 15
Last Quarter
Sep 24
New

Yesterday's Extremes

State Highs State Lows

Community

WunderPhotos

Upload Photos

1,749,573 photos uploaded!

WunderBlogs® & News

Nearby

Snow Depth

Station Depth Elevation
McClure Pass 3 in 9500 ft
Bison Lake 0 in 10880 ft
Overland Reservoir 0 in 9880 ft
North Lost Trail 0 in 9200 ft
Schofield Pass 0 in 10700 ft

Earthquake Activity

City Distance Mag. Time & Date
No recent earthquake activity has been reported nearby.
Minimum magnitude displayed is 2.5.

Coastal Water Temperatures

Place Temperature
No Stations Reporting

Nearby Weather Stations